Time;durP1;ratioP1;P1;durP2;ratioP2;P2;SDS_P1;SDS_P2;PMS_P1;PMS_P2;Temp;Humidity;BMP_temperature;BMP_pressure;BME280_temperature;BME280_humidity;BME280_pressure;Samples;Min_cycle;Max_cycle;Signal;HPM_P1;HPM_P2
2022/10/15 00:02:06;;;;;;;0.50;0.50;;;;;;;;;;7388450;19;20129;-72
2022/10/15 00:04:32;;;;;;;0.30;0.30;;;;;;;;;;7391666;19;20163;-72
2022/10/15 00:06:57;;;;;;;0.30;0.30;;;;;;;;;;7395583;19;20125;-72
2022/10/15 00:09:23;;;;;;;0.30;0.30;;;;;;;;;;7396157;19;20225;-72
2022/10/15 00:11:48;;;;;;;0.30;0.30;;;;;;;;;;7396230;19;20141;-72
2022/10/15 00:14:14;;;;;;;0.30;0.30;;;;;;;;;;7396220;19;20145;-71
2022/10/15 00:16:39;;;;;;;0.20;0.20;;;;;;;;;;7397777;19;20144;-72
2022/10/15 00:19:04;;;;;;;0.30;0.30;;;;;;;;;;7395001;19;20216;-72
2022/10/15 00:21:30;;;;;;;0.30;0.30;;;;;;;;;;7395004;19;20125;-72
2022/10/15 00:23:55;;;;;;;0.30;0.30;;;;;;;;;;7394496;19;20133;-72
2022/10/15 00:26:23;;;;;;;0.30;0.30;;;;;;;;;;7394511;19;20145;-72
2022/10/15 00:28:51;;;;;;;0.30;0.30;;;;;;;;;;7396241;19;20577;-72
2022/10/15 00:31:18;;;;;;;0.28;0.28;;;;;;;;;;7393231;19;20113;-72
2022/10/15 00:33:44;;;;;;;0.30;0.30;;;;;;;;;;7397074;19;20127;-72
2022/10/15 00:36:18;;;;;;;0.30;0.30;;;;;;;;;;7391823;19;20172;-72
2022/10/15 00:38:43;;;;;;;0.30;0.30;;;;;;;;;;7395541;19;20161;-72
2022/10/15 00:41:15;;;;;;;0.30;0.30;;;;;;;;;;7393019;19;20623;-72
2022/10/15 00:43:54;;;;;;;0.30;0.30;;;;;;;;;;7393942;19;20818;-71
2022/10/15 00:46:24;;;;;;;0.50;0.50;;;;;;;;;;7394659;19;20140;-72
2022/10/15 00:49:14;;;;;;;0.30;0.30;;;;;;;;;;7394824;19;20129;-72
2022/10/15 00:51:43;;;;;;;0.30;0.30;;;;;;;;;;7394267;19;20129;-73
2022/10/15 00:54:10;;;;;;;0.30;0.30;;;;;;;;;;7393841;19;20133;-72
2022/10/15 00:56:35;;;;;;;0.30;0.30;;;;;;;;;;7392952;19;20970;-71
2022/10/15 00:59:01;;;;;;;0.30;0.30;;;;;;;;;;7394013;19;20152;-72
2022/10/15 01:01:26;;;;;;;0.30;0.30;;;;;;;;;;7392273;19;20442;-72
2022/10/15 01:03:53;;;;;;;0.30;0.30;;;;;;;;;;7393627;19;20152;-72
2022/10/15 01:06:18;;;;;;;0.30;0.30;;;;;;;;;;7392215;19;20462;-71
2022/10/15 01:08:44;;;;;;;0.30;0.30;;;;;;;;;;7393696;19;20141;-70
2022/10/15 01:11:20;;;;;;;0.30;0.30;;;;;;;;;;7393485;19;20117;-72
2022/10/15 01:14:28;;;;;;;0.30;0.30;;;;;;;;;;7394941;19;20121;-71
2022/10/15 01:16:59;;;;;;;0.30;0.30;;;;;;;;;;7393439;19;20120;-71
2022/10/15 01:19:46;;;;;;;0.30;0.30;;;;;;;;;;7394333;19;20650;-72
2022/10/15 01:22:45;;;;;;;0.35;0.35;;;;;;;;;;7396101;19;20129;-72
2022/10/15 01:25:22;;;;;;;0.30;0.30;;;;;;;;;;7389093;19;20179;-72
2022/10/15 01:27:54;;;;;;;0.30;0.30;;;;;;;;;;7391885;19;20125;-72
2022/10/15 01:30:19;;;;;;;0.20;0.20;;;;;;;;;;7390243;19;20158;-73
2022/10/15 01:32:56;;;;;;;0.30;0.30;;;;;;;;;;7387837;19;20133;-73
2022/10/15 01:35:46;;;;;;;0.30;0.30;;;;;;;;;;7389597;19;20175;-72
2022/10/15 01:38:26;;;;;;;0.30;0.30;;;;;;;;;;7391098;19;20132;-72
2022/10/15 01:40:58;;;;;;;0.40;0.40;;;;;;;;;;7388727;19;20164;-72
2022/10/15 01:43:34;;;;;;;0.30;0.30;;;;;;;;;;7390133;19;20124;-72
2022/10/15 01:46:05;;;;;;;0.30;0.30;;;;;;;;;;7389230;19;20166;-71
2022/10/15 01:48:31;;;;;;;0.30;0.30;;;;;;;;;;7392817;19;20473;-71
2022/10/15 01:51:00;;;;;;;0.30;0.30;;;;;;;;;;7389466;19;20113;-71
2022/10/15 01:53:26;;;;;;;0.20;0.20;;;;;;;;;;7390422;19;20117;-71
2022/10/15 01:56:01;;;;;;;0.30;0.30;;;;;;;;;;7390222;19;20173;-72
2022/10/15 01:58:28;;;;;;;0.30;0.30;;;;;;;;;;7392822;19;20131;-72
2022/10/15 02:00:56;;;;;;;0.30;0.30;;;;;;;;;;7391721;19;20140;-72
2022/10/15 02:03:21;;;;;;;0.30;0.30;;;;;;;;;;7393164;19;20140;-74
2022/10/15 02:05:52;;;;;;;0.30;0.30;;;;;;;;;;7390991;19;20200;-74
2022/10/15 02:08:52;;;;;;;0.30;0.30;;;;;;;;;;7389869;19;20477;-74
2022/10/15 02:11:18;;;;;;;1.08;0.73;;;;;;;;;;7389058;19;20152;-74
2022/10/15 02:13:58;;;;;;;0.30;0.30;;;;;;;;;;7391700;19;20583;-73
2022/10/15 02:16:30;;;;;;;0.30;0.30;;;;;;;;;;7392253;19;20153;-72
2022/10/15 02:19:08;;;;;;;0.30;0.30;;;;;;;;;;7392072;19;20125;-75
2022/10/15 02:21:43;;;;;;;0.30;0.30;;;;;;;;;;7392249;19;20164;-71
2022/10/15 02:24:27;;;;;;;0.30;0.30;;;;;;;;;;7391259;19;20125;-73
2022/10/15 02:26:54;;;;;;;0.30;0.30;;;;;;;;;;7391106;19;20129;-72
2022/10/15 02:29:21;;;;;;;0.30;0.30;;;;;;;;;;7391088;19;20172;-72
2022/10/15 02:31:48;;;;;;;0.40;0.40;;;;;;;;;;7388901;19;20526;-72
2022/10/15 02:34:17;;;;;;;0.30;0.30;;;;;;;;;;7391189;19;20336;-72
2022/10/15 02:36:43;;;;;;;0.30;0.30;;;;;;;;;;7391514;19;20952;-71
2022/10/15 02:39:14;;;;;;;0.30;0.30;;;;;;;;;;7391033;19;20153;-72
2022/10/15 02:41:40;;;;;;;0.30;0.30;;;;;;;;;;7390669;19;20228;-71
2022/10/15 02:44:06;;;;;;;0.30;0.30;;;;;;;;;;7390702;19;20751;-72
2022/10/15 02:46:31;;;;;;;0.30;0.30;;;;;;;;;;7390425;19;20160;-72
2022/10/15 02:48:56;;;;;;;0.30;0.30;;;;;;;;;;7390575;19;20113;-71
2022/10/15 02:51:22;;;;;;;0.30;0.30;;;;;;;;;;7389334;19;20141;-72
2022/10/15 02:53:47;;;;;;;0.30;0.30;;;;;;;;;;7391157;19;20142;-71
2022/10/15 02:56:12;;;;;;;0.30;0.30;;;;;;;;;;7390741;19;20145;-71
2022/10/15 02:58:38;;;;;;;0.30;0.30;;;;;;;;;;7391549;19;20113;-72
2022/10/15 03:01:03;;;;;;;0.30;0.30;;;;;;;;;;7389852;19;20164;-72
2022/10/15 03:03:29;;;;;;;0.30;0.30;;;;;;;;;;7390823;19;20135;-72
2022/10/15 03:05:54;;;;;;;0.25;0.25;;;;;;;;;;7388128;19;20145;-72
2022/10/15 03:08:19;;;;;;;0.30;0.30;;;;;;;;;;7387988;19;20161;-71
2022/10/15 03:10:45;;;;;;;0.30;0.30;;;;;;;;;;7388354;19;20160;-72
2022/10/15 03:13:10;;;;;;;0.30;0.30;;;;;;;;;;7390639;19;20121;-75
2022/10/15 03:15:36;;;;;;;0.20;0.20;;;;;;;;;;7388571;19;20187;-74
2022/10/15 03:18:01;;;;;;;0.30;0.30;;;;;;;;;;7389796;19;20136;-74
2022/10/15 03:20:26;;;;;;;0.30;0.30;;;;;;;;;;7389237;19;20599;-74
2022/10/15 03:22:52;;;;;;;0.30;0.30;;;;;;;;;;7390585;19;20119;-74
2022/10/15 03:25:17;;;;;;;0.30;0.30;;;;;;;;;;7390369;19;20141;-72
2022/10/15 03:27:42;;;;;;;0.30;0.30;;;;;;;;;;7387870;19;20583;-71
2022/10/15 03:30:08;;;;;;;0.30;0.30;;;;;;;;;;7389712;19;20156;-71
2022/10/15 03:32:34;;;;;;;0.30;0.30;;;;;;;;;;7389142;19;20136;-71
2022/10/15 03:34:59;;;;;;;0.30;0.30;;;;;;;;;;7390481;19;20643;-72
2022/10/15 03:37:24;;;;;;;0.20;0.20;;;;;;;;;;7391834;19;20132;-72
2022/10/15 03:39:50;;;;;;;0.30;0.30;;;;;;;;;;7391960;19;20121;-72
2022/10/15 03:42:15;;;;;;;0.30;0.30;;;;;;;;;;7397455;19;20627;-72
2022/10/15 03:44:40;;;;;;;0.30;0.30;;;;;;;;;;7395987;19;20169;-72
2022/10/15 03:47:06;;;;;;;0.30;0.30;;;;;;;;;;7395475;19;20137;-72
2022/10/15 03:49:31;;;;;;;0.30;0.30;;;;;;;;;;7398348;19;20545;-72
2022/10/15 03:51:57;;;;;;;0.30;0.30;;;;;;;;;;7396124;19;20515;-72
2022/10/15 03:54:22;;;;;;;0.30;0.30;;;;;;;;;;7389150;19;20156;-71
2022/10/15 03:56:47;;;;;;;0.50;0.50;;;;;;;;;;7394129;19;20125;-72
2022/10/15 03:59:13;;;;;;;0.30;0.30;;;;;;;;;;7395657;19;20736;-72
2022/10/15 04:01:38;;;;;;;0.30;0.30;;;;;;;;;;7393068;19;20163;-71
2022/10/15 04:04:03;;;;;;;0.30;0.30;;;;;;;;;;7395201;19;20610;-72
2022/10/15 04:06:29;;;;;;;0.20;0.20;;;;;;;;;;7394117;19;20505;-72
2022/10/15 04:08:54;;;;;;;0.30;0.30;;;;;;;;;;7395072;19;20164;-72
2022/10/15 04:11:19;;;;;;;0.30;0.30;;;;;;;;;;7393727;19;20141;-72
2022/10/15 04:13:49;;;;;;;0.30;0.30;;;;;;;;;;7393021;19;20445;-72
2022/10/15 04:16:14;;;;;;;0.30;0.30;;;;;;;;;;7391308;19;20180;-72
2022/10/15 04:18:39;;;;;;;0.30;0.30;;;;;;;;;;7393810;19;20149;-72
2022/10/15 04:21:05;;;;;;;0.30;0.30;;;;;;;;;;7393581;19;20130;-72
2022/10/15 04:23:30;;;;;;;0.30;0.30;;;;;;;;;;7394305;19;20143;-72
2022/10/15 04:25:59;;;;;;;0.30;0.30;;;;;;;;;;7393758;19;20505;-72
2022/10/15 04:28:24;;;;;;;0.30;0.30;;;;;;;;;;7393068;19;20145;-72
2022/10/15 04:30:49;;;;;;;0.30;0.30;;;;;;;;;;7393304;19;20225;-72
2022/10/15 04:33:15;;;;;;;0.30;0.30;;;;;;;;;;7396441;19;20192;-72
2022/10/15 04:35:40;;;;;;;0.30;0.30;;;;;;;;;;7393935;19;20149;-72
2022/10/15 04:38:05;;;;;;;0.30;0.30;;;;;;;;;;7395114;19;20121;-72
2022/10/15 04:40:30;;;;;;;0.20;0.20;;;;;;;;;;7394912;19;20148;-72
2022/10/15 04:42:56;;;;;;;0.30;0.30;;;;;;;;;;7395018;19;20606;-72
2022/10/15 04:45:21;;;;;;;0.35;0.35;;;;;;;;;;7393534;19;20195;-72
2022/10/15 04:47:46;;;;;;;0.30;0.30;;;;;;;;;;7392336;19;20136;-72
2022/10/15 04:50:12;;;;;;;0.68;0.68;;;;;;;;;;7392395;19;20129;-72
2022/10/15 04:52:37;;;;;;;0.30;0.30;;;;;;;;;;7394394;19;20144;-72
2022/10/15 04:55:03;;;;;;;0.30;0.30;;;;;;;;;;7393489;19;20185;-72
2022/10/15 04:57:29;;;;;;;0.30;0.30;;;;;;;;;;7394785;19;20595;-72
2022/10/15 04:59:54;;;;;;;0.30;0.30;;;;;;;;;;7395425;19;20142;-72
2022/10/15 05:02:20;;;;;;;0.30;0.30;;;;;;;;;;7395207;19;20158;-71
2022/10/15 05:04:45;;;;;;;0.30;0.30;;;;;;;;;;7392499;19;20137;-71
2022/10/15 05:07:10;;;;;;;0.30;0.30;;;;;;;;;;7395020;19;20142;-72
2022/10/15 05:09:36;;;;;;;0.30;0.30;;;;;;;;;;7392610;19;20535;-72
2022/10/15 05:12:01;;;;;;;0.30;0.30;;;;;;;;;;7393728;19;20121;-72
2022/10/15 05:14:27;;;;;;;0.30;0.30;;;;;;;;;;7393210;19;20676;-72
2022/10/15 05:16:52;;;;;;;0.20;0.20;;;;;;;;;;7394467;19;20152;-72
2022/10/15 05:19:17;;;;;;;0.30;0.30;;;;;;;;;;7393946;19;20113;-72
2022/10/15 05:21:43;;;;;;;0.30;0.30;;;;;;;;;;7393257;19;20160;-72
2022/10/15 05:24:08;;;;;;;0.30;0.30;;;;;;;;;;7393082;19;20137;-72
2022/10/15 05:26:34;;;;;;;0.30;0.30;;;;;;;;;;7395357;19;20158;-72
2022/10/15 05:28:59;;;;;;;0.30;0.30;;;;;;;;;;7395474;19;20156;-72
2022/10/15 05:31:27;;;;;;;0.20;0.20;;;;;;;;;;7392855;19;20156;-72
2022/10/15 05:33:53;;;;;;;0.30;0.30;;;;;;;;;;7392764;19;20129;-72
2022/10/15 05:36:25;;;;;;;0.30;0.30;;;;;;;;;;7393772;19;20166;-72
2022/10/15 05:38:55;;;;;;;0.30;0.30;;;;;;;;;;7393081;19;20523;-72
2022/10/15 05:41:21;;;;;;;0.30;0.30;;;;;;;;;;7391802;19;20121;-72
2022/10/15 05:43:48;;;;;;;0.30;0.30;;;;;;;;;;7393229;19;20136;-72
2022/10/15 05:46:13;;;;;;;0.30;0.30;;;;;;;;;;7390875;19;20188;-72
2022/10/15 05:48:39;;;;;;;0.30;0.30;;;;;;;;;;7393630;19;20113;-72
2022/10/15 05:51:06;;;;;;;0.30;0.30;;;;;;;;;;7391033;19;20136;-72
2022/10/15 05:53:31;;;;;;;0.30;0.30;;;;;;;;;;7391256;19;20583;-72
2022/10/15 05:56:00;;;;;;;0.30;0.30;;;;;;;;;;7390278;19;20157;-72
2022/10/15 05:58:27;;;;;;;0.30;0.30;;;;;;;;;;7392259;19;20132;-72
2022/10/15 06:00:58;;;;;;;0.30;0.30;;;;;;;;;;7391503;19;20136;-72
2022/10/15 06:03:23;;;;;;;0.30;0.30;;;;;;;;;;7390691;19;20489;-72
2022/10/15 06:05:49;;;;;;;0.30;0.30;;;;;;;;;;7392437;19;20160;-72
2022/10/15 06:08:15;;;;;;;0.30;0.30;;;;;;;;;;7390864;19;20197;-71
2022/10/15 06:10:40;;;;;;;0.30;0.30;;;;;;;;;;7392324;19;20141;-72
2022/10/15 06:13:06;;;;;;;0.30;0.30;;;;;;;;;;7391221;19;20117;-72
2022/10/15 06:15:31;;;;;;;0.30;0.30;;;;;;;;;;7390769;19;20144;-72
2022/10/15 06:17:57;;;;;;;0.30;0.30;;;;;;;;;;7392654;19;20148;-72
2022/10/15 06:20:22;;;;;;;0.30;0.30;;;;;;;;;;7390839;19;20168;-72
2022/10/15 06:22:47;;;;;;;0.30;0.30;;;;;;;;;;7393355;19;20121;-72
2022/10/15 06:25:13;;;;;;;0.30;0.30;;;;;;;;;;7380375;19;20176;-72
2022/10/15 06:27:38;;;;;;;0.95;0.95;;;;;;;;;;7389254;19;20121;-72
2022/10/15 06:30:04;;;;;;;0.30;0.30;;;;;;;;;;7386661;19;20129;-72
2022/10/15 06:32:29;;;;;;;0.30;0.30;;;;;;;;;;7390641;19;20151;-72
2022/10/15 06:34:55;;;;;;;0.30;0.30;;;;;;;;;;7389709;19;20552;-71
2022/10/15 06:37:20;;;;;;;0.30;0.30;;;;;;;;;;7387721;19;20137;-71
2022/10/15 06:39:45;;;;;;;0.30;0.30;;;;;;;;;;7388122;19;20131;-71
2022/10/15 06:42:11;;;;;;;0.30;0.30;;;;;;;;;;7388735;19;20129;-72
2022/10/15 06:44:36;;;;;;;0.30;0.30;;;;;;;;;;7390233;19;20607;-72
2022/10/15 06:47:01;;;;;;;0.30;0.30;;;;;;;;;;7388209;19;20124;-72
2022/10/15 06:49:27;;;;;;;0.30;0.30;;;;;;;;;;7387997;19;20125;-72
2022/10/15 06:51:52;;;;;;;0.30;0.30;;;;;;;;;;7385975;19;20117;-72
2022/10/15 06:54:17;;;;;;;0.30;0.30;;;;;;;;;;7388009;19;20216;-72
2022/10/15 06:56:43;;;;;;;0.22;0.22;;;;;;;;;;7388364;19;20133;-72
2022/10/15 06:59:08;;;;;;;0.25;0.25;;;;;;;;;;7388939;19;20150;-72
2022/10/15 07:01:33;;;;;;;0.22;0.22;;;;;;;;;;7388355;19;20151;-72
2022/10/15 07:03:58;;;;;;;0.20;0.20;;;;;;;;;;7387840;19;20148;-72
2022/10/15 07:06:24;;;;;;;0.28;0.28;;;;;;;;;;7387732;19;20503;-72
2022/10/15 07:08:49;;;;;;;0.30;0.30;;;;;;;;;;7388369;19;20188;-72
2022/10/15 07:11:15;;;;;;;0.30;0.30;;;;;;;;;;7387703;19;20116;-72
2022/10/15 07:13:41;;;;;;;0.30;0.30;;;;;;;;;;7389899;19;20654;-71
2022/10/15 07:16:08;;;;;;;0.30;0.30;;;;;;;;;;7387053;19;20358;-71
2022/10/15 07:18:34;;;;;;;0.30;0.30;;;;;;;;;;7389103;19;20180;-71
2022/10/15 07:20:59;;;;;;;0.30;0.30;;;;;;;;;;7387381;19;20498;-71
2022/10/15 07:23:24;;;;;;;0.30;0.30;;;;;;;;;;7388996;19;20458;-71
2022/10/15 07:25:50;;;;;;;0.45;0.45;;;;;;;;;;7387710;19;20416;-72
2022/10/15 07:28:15;;;;;;;0.30;0.30;;;;;;;;;;7384571;19;20646;-72
2022/10/15 07:30:40;;;;;;;0.30;0.30;;;;;;;;;;7386047;19;20136;-72
2022/10/15 07:33:06;;;;;;;0.20;0.20;;;;;;;;;;7388852;19;20125;-72
2022/10/15 07:35:31;;;;;;;0.30;0.30;;;;;;;;;;7385037;19;20714;-72
2022/10/15 07:37:59;;;;;;;0.30;0.30;;;;;;;;;;7386010;19;20619;-72
2022/10/15 07:40:25;;;;;;;0.30;0.30;;;;;;;;;;7385495;19;20144;-71
2022/10/15 07:42:54;;;;;;;0.30;0.30;;;;;;;;;;7388042;19;20163;-72
2022/10/15 07:45:20;;;;;;;0.25;0.25;;;;;;;;;;7385593;19;20176;-72
2022/10/15 07:47:45;;;;;;;0.20;0.20;;;;;;;;;;7384673;19;20159;-72
2022/10/15 07:50:10;;;;;;;0.30;0.30;;;;;;;;;;7385338;19;20141;-73
2022/10/15 07:52:35;;;;;;;0.30;0.30;;;;;;;;;;7387582;19;20129;-72
2022/10/15 07:55:01;;;;;;;0.30;0.30;;;;;;;;;;7384074;19;20505;-71
2022/10/15 07:57:26;;;;;;;0.20;0.20;;;;;;;;;;7386946;19;20189;-71
2022/10/15 07:59:51;;;;;;;0.30;0.30;;;;;;;;;;7384916;19;20156;-72
2022/10/15 08:02:17;;;;;;;0.30;0.30;;;;;;;;;;7385581;19;20496;-72
2022/10/15 08:04:43;;;;;;;0.30;0.30;;;;;;;;;;7382918;19;20145;-72
2022/10/15 08:07:08;;;;;;;0.30;0.30;;;;;;;;;;7382237;19;20137;-71
2022/10/15 08:09:33;;;;;;;0.30;0.30;;;;;;;;;;7387306;19;20118;-72
2022/10/15 08:11:59;;;;;;;0.30;0.30;;;;;;;;;;7387390;19;20535;-71
2022/10/15 08:14:25;;;;;;;0.30;0.30;;;;;;;;;;7386691;19;20145;-71
2022/10/15 08:16:50;;;;;;;0.30;0.30;;;;;;;;;;7388521;19;20149;-72
2022/10/15 08:19:16;;;;;;;0.30;0.30;;;;;;;;;;7389093;19;20546;-72
2022/10/15 08:21:42;;;;;;;0.30;0.30;;;;;;;;;;7387696;19;20604;-72
2022/10/15 08:24:08;;;;;;;0.93;0.93;;;;;;;;;;7390141;19;20462;-73
2022/10/15 08:26:33;;;;;;;0.30;0.30;;;;;;;;;;7391793;19;20132;-72
2022/10/15 08:28:59;;;;;;;0.30;0.30;;;;;;;;;;7394098;19;20188;-72
2022/10/15 08:31:24;;;;;;;0.30;0.30;;;;;;;;;;7393157;19;20197;-72
2022/10/15 08:33:50;;;;;;;0.30;0.30;;;;;;;;;;7395380;19;20477;-72
2022/10/15 08:36:15;;;;;;;0.30;0.30;;;;;;;;;;7391861;19;20149;-72
2022/10/15 08:38:40;;;;;;;0.30;0.30;;;;;;;;;;7396530;19;20437;-72
2022/10/15 08:41:22;;;;;;;0.30;0.30;;;;;;;;;;7393388;19;20237;-72
2022/10/15 08:43:48;;;;;;;0.93;0.93;;;;;;;;;;7395089;19;20136;-72
2022/10/15 08:46:37;;;;;;;0.30;0.30;;;;;;;;;;7391513;19;20563;-72
2022/10/15 08:49:03;;;;;;;0.30;0.30;;;;;;;;;;7394675;19;20623;-71
2022/10/15 08:51:47;;;;;;;0.30;0.30;;;;;;;;;;7393678;19;20125;-71
2022/10/15 08:54:15;;;;;;;0.30;0.30;;;;;;;;;;7394700;19;20165;-71
2022/10/15 08:56:47;;;;;;;0.30;0.30;;;;;;;;;;7394530;19;20125;-71
2022/10/15 08:59:36;;;;;;;0.22;0.22;;;;;;;;;;7393483;19;20607;-71
2022/10/15 09:02:09;;;;;;;0.30;0.30;;;;;;;;;;7394645;19;20141;-71
2022/10/15 09:04:53;;;;;;;0.30;0.30;;;;;;;;;;7392379;19;20147;-71
2022/10/15 09:07:25;;;;;;;0.30;0.30;;;;;;;;;;7394757;19;20129;-71
2022/10/15 09:09:53;;;;;;;0.30;0.30;;;;;;;;;;7393143;19;20455;-71
2022/10/15 09:12:37;;;;;;;0.28;0.28;;;;;;;;;;7395066;19;20143;-72
2022/10/15 09:15:04;;;;;;;0.30;0.30;;;;;;;;;;7394321;19;20145;-72
2022/10/15 09:17:31;;;;;;;0.30;0.30;;;;;;;;;;7393241;19;20152;-71
2022/10/15 09:19:57;;;;;;;0.32;0.32;;;;;;;;;;7392148;19;20139;-72
2022/10/15 09:22:28;;;;;;;0.30;0.30;;;;;;;;;;7393038;19;20160;-71
2022/10/15 09:24:54;;;;;;;0.20;0.20;;;;;;;;;;7392449;19;20148;-71
2022/10/15 09:27:34;;;;;;;0.30;0.30;;;;;;;;;;7390745;19;20588;-71
2022/10/15 09:30:06;;;;;;;0.30;0.30;;;;;;;;;;7392832;19;20149;-71
2022/10/15 09:32:41;;;;;;;0.30;0.30;;;;;;;;;;7392521;19;20151;-71
2022/10/15 09:35:16;;;;;;;0.30;0.30;;;;;;;;;;7390637;19;20179;-71
2022/10/15 09:37:54;;;;;;;0.50;0.50;;;;;;;;;;7393196;19;20128;-71
2022/10/15 09:40:57;;;;;;;0.30;0.30;;;;;;;;;;7392635;19;20129;-71
2022/10/15 09:43:30;;;;;;;0.30;0.30;;;;;;;;;;7394040;19;20204;-71
2022/10/15 09:45:56;;;;;;;0.30;0.30;;;;;;;;;;7390076;19;20152;-71
2022/10/15 09:48:22;;;;;;;0.30;0.30;;;;;;;;;;7390262;19;20168;-71
2022/10/15 09:51:11;;;;;;;0.30;0.30;;;;;;;;;;7387038;19;20484;-71
2022/10/15 09:53:51;;;;;;;0.30;0.30;;;;;;;;;;7389301;19;20125;-71
2022/10/15 09:56:18;;;;;;;0.30;0.30;;;;;;;;;;7389107;19;20584;-71
2022/10/15 09:58:55;;;;;;;0.35;0.35;;;;;;;;;;7390122;19;20120;-71
2022/10/15 10:01:25;;;;;;;0.30;0.30;;;;;;;;;;7390730;19;20161;-71
2022/10/15 10:04:09;;;;;;;0.30;0.30;;;;;;;;;;7389390;19;20147;-72
2022/10/15 10:06:54;;;;;;;0.30;0.30;;;;;;;;;;7390635;19;20145;-71
2022/10/15 10:09:22;;;;;;;0.30;0.30;;;;;;;;;;7389218;19;20647;-71
2022/10/15 10:11:51;;;;;;;0.30;0.30;;;;;;;;;;7388514;19;20144;-71
2022/10/15 10:14:32;;;;;;;0.30;0.30;;;;;;;;;;7390878;19;20148;-71
2022/10/15 10:17:10;;;;;;;0.30;0.30;;;;;;;;;;7390047;19;20200;-71
2022/10/15 10:19:37;;;;;;;0.30;0.30;;;;;;;;;;7390262;19;20140;-72
2022/10/15 10:22:17;;;;;;;0.20;0.20;;;;;;;;;;7389496;19;20536;-72
2022/10/15 10:24:44;;;;;;;0.30;0.30;;;;;;;;;;7390129;19;20160;-71
2022/10/15 10:27:20;;;;;;;0.30;0.30;;;;;;;;;;7390472;19;20136;-71
2022/10/15 10:29:53;;;;;;;0.40;0.40;;;;;;;;;;7389757;19;20124;-71
2022/10/15 10:32:22;;;;;;;0.30;0.30;;;;;;;;;;7391025;19;20137;-71
2022/10/15 10:34:47;;;;;;;0.30;0.30;;;;;;;;;;7391907;19;20200;-71
2022/10/15 10:37:12;;;;;;;0.30;0.30;;;;;;;;;;7391413;19;20157;-71
2022/10/15 10:39:38;;;;;;;0.20;0.20;;;;;;;;;;7390965;19;20131;-71
2022/10/15 10:42:23;;;;;;;0.30;0.30;;;;;;;;;;7391082;19;20464;-71
2022/10/15 10:44:48;;;;;;;0.30;0.30;;;;;;;;;;7389006;19;20709;-72
2022/10/15 10:47:18;;;;;;;0.30;0.30;;;;;;;;;;7389842;19;20121;-71
2022/10/15 10:49:45;;;;;;;0.30;0.30;;;;;;;;;;7388122;19;20184;-71
2022/10/15 10:52:35;;;;;;;0.30;0.30;;;;;;;;;;7392584;19;20594;-71
2022/10/15 10:55:24;;;;;;;0.30;0.30;;;;;;;;;;7391721;19;20149;-71
2022/10/15 10:57:53;;;;;;;0.30;0.30;;;;;;;;;;7389114;19;20166;-71
2022/10/15 11:00:38;;;;;;;0.30;0.30;;;;;;;;;;7389347;19;20567;-71
2022/10/15 11:03:04;;;;;;;0.30;0.30;;;;;;;;;;7389689;19;20133;-71
2022/10/15 11:05:32;;;;;;;0.30;0.30;;;;;;;;;;7389515;19;20614;-71
2022/10/15 11:08:07;;;;;;;0.30;0.30;;;;;;;;;;7388582;19;20559;-72
2022/10/15 11:10:42;;;;;;;0.20;0.20;;;;;;;;;;7389763;19;20136;-72
2022/10/15 11:13:19;;;;;;;0.30;0.30;;;;;;;;;;7390142;19;20155;-71
2022/10/15 11:15:55;;;;;;;0.30;0.30;;;;;;;;;;7387999;19;20159;-72
2022/10/15 11:18:43;;;;;;;0.32;0.32;;;;;;;;;;7390457;19;20212;-71
2022/10/15 11:21:27;;;;;;;0.30;0.30;;;;;;;;;;7389314;19;20156;-71
2022/10/15 11:24:10;;;;;;;0.30;0.30;;;;;;;;;;7390289;19;20148;-72
2022/10/15 11:26:47;;;;;;;0.30;0.30;;;;;;;;;;7391840;19;20125;-72
2022/10/15 11:29:37;;;;;;;0.30;0.30;;;;;;;;;;7389003;19;20598;-72
2022/10/15 11:32:32;;;;;;;0.40;0.40;;;;;;;;;;7390463;19;20587;-72
2022/10/15 11:35:28;;;;;;;0.30;0.30;;;;;;;;;;7389572;19;21051;-72
2022/10/15 11:38:35;;;;;;;0.30;0.30;;;;;;;;;;7392422;19;20456;-72
2022/10/15 11:41:12;;;;;;;0.35;0.35;;;;;;;;;;7389150;19;20141;-72
2022/10/15 11:43:49;;;;;;;0.50;0.50;;;;;;;;;;7391459;19;20141;-72
2022/10/15 11:46:19;;;;;;;0.25;0.25;;;;;;;;;;7389269;19;20220;-72
2022/10/15 11:49:07;;;;;;;0.30;0.30;;;;;;;;;;7388435;19;20189;-72
2022/10/15 11:51:47;;;;;;;0.30;0.30;;;;;;;;;;7388919;19;20145;-72
2022/10/15 11:54:38;;;;;;;0.30;0.30;;;;;;;;;;7391162;19;20153;-72
2022/10/15 11:57:11;;;;;;;0.30;0.30;;;;;;;;;;7389518;19;20158;-72
2022/10/15 11:59:44;;;;;;;0.30;0.30;;;;;;;;;;7388138;19;20125;-72
2022/10/15 12:02:13;;;;;;;0.30;0.30;;;;;;;;;;7396095;19;20544;-72
2022/10/15 12:04:55;;;;;;;0.30;0.30;;;;;;;;;;7394271;19;20204;-72
2022/10/15 12:07:33;;;;;;;0.30;0.30;;;;;;;;;;7394322;19;20171;-72
2022/10/15 12:10:37;;;;;;;0.30;0.30;;;;;;;;;;7395878;19;20156;-72
2022/10/15 12:13:14;;;;;;;0.30;0.30;;;;;;;;;;7396719;19;20140;-72
2022/10/15 12:16:03;;;;;;;0.40;0.40;;;;;;;;;;7394471;19;20157;-72
2022/10/15 12:18:44;;;;;;;0.30;0.30;;;;;;;;;;7395975;19;20140;-72
2022/10/15 12:21:38;;;;;;;0.85;0.70;;;;;;;;;;7395601;19;20196;-72
2022/10/15 12:24:09;;;;;;;0.30;0.30;;;;;;;;;;7394527;19;20598;-72
2022/10/15 12:26:35;;;;;;;0.30;0.30;;;;;;;;;;7391865;19;20228;-72
2022/10/15 12:29:04;;;;;;;0.35;0.35;;;;;;;;;;7393601;19;20145;-72
2022/10/15 12:31:44;;;;;;;0.30;0.30;;;;;;;;;;7391952;19;20156;-72
2022/10/15 12:34:23;;;;;;;0.30;0.30;;;;;;;;;;7393790;19;20129;-72
2022/10/15 12:36:58;;;;;;;0.30;0.30;;;;;;;;;;7394786;19;20156;-72
2022/10/15 12:39:24;;;;;;;0.40;0.40;;;;;;;;;;7392867;19;20120;-72
2022/10/15 12:41:49;;;;;;;0.40;0.40;;;;;;;;;;7393640;19;20129;-71
2022/10/15 12:44:21;;;;;;;0.40;0.40;;;;;;;;;;7392695;19;20152;-71
2022/10/15 12:46:47;;;;;;;0.38;0.38;;;;;;;;;;7393102;19;20155;-72
2022/10/15 12:49:24;;;;;;;0.30;0.30;;;;;;;;;;7392923;19;20125;-72
2022/10/15 12:51:50;;;;;;;0.30;0.30;;;;;;;;;;7394046;19;20148;-71
2022/10/15 12:54:40;;;;;;;0.30;0.30;;;;;;;;;;7393939;19;20180;-71
2022/10/15 12:57:30;;;;;;;0.30;0.30;;;;;;;;;;7393328;19;20144;-71
2022/10/15 12:59:57;;;;;;;0.50;0.50;;;;;;;;;;7396006;19;20132;-72
2022/10/15 13:02:31;;;;;;;0.30;0.30;;;;;;;;;;7394535;19;20121;-72
2022/10/15 13:04:57;;;;;;;0.30;0.30;;;;;;;;;;7393376;19;20148;-71
2022/10/15 13:07:22;;;;;;;0.30;0.30;;;;;;;;;;7392685;19;20121;-72
2022/10/15 13:09:47;;;;;;;0.30;0.30;;;;;;;;;;7393689;19;20197;-72
2022/10/15 13:12:22;;;;;;;0.30;0.30;;;;;;;;;;7393132;19;20149;-72
2022/10/15 13:14:52;;;;;;;0.30;0.30;;;;;;;;;;7393285;19;20364;-71
2022/10/15 13:17:18;;;;;;;0.30;0.30;;;;;;;;;;7393557;19;20156;-72
2022/10/15 13:19:50;;;;;;;0.30;0.30;;;;;;;;;;7393604;19;20134;-72
2022/10/15 13:22:21;;;;;;;0.30;0.30;;;;;;;;;;7395653;19;20133;-71
2022/10/15 13:24:47;;;;;;;0.30;0.30;;;;;;;;;;7379564;19;20197;-72
2022/10/15 13:27:13;;;;;;;0.30;0.30;;;;;;;;;;7377239;19;20710;-72
2022/10/15 13:29:52;;;;;;;0.30;0.30;;;;;;;;;;7375117;19;20133;-72
2022/10/15 13:32:17;;;;;;;0.30;0.30;;;;;;;;;;7378246;19;20491;-72
2022/10/15 13:34:43;;;;;;;0.98;0.98;;;;;;;;;;7386059;19;20231;-73
2022/10/15 13:37:16;;;;;;;0.30;0.30;;;;;;;;;;7387571;19;20192;-72
2022/10/15 13:39:41;;;;;;;0.30;0.30;;;;;;;;;;7388865;19;20130;-72
2022/10/15 13:42:18;;;;;;;0.30;0.30;;;;;;;;;;7380602;19;20137;-71
2022/10/15 13:45:17;;;;;;;0.30;0.30;;;;;;;;;;7387911;19;20176;-73
2022/10/15 13:47:47;;;;;;;0.30;0.30;;;;;;;;;;7390738;19;20236;-72
2022/10/15 13:50:23;;;;;;;0.30;0.30;;;;;;;;;;7375551;19;20121;-72
2022/10/15 13:52:54;;;;;;;0.20;0.20;;;;;;;;;;7381864;19;20769;-72
2022/10/15 13:55:23;;;;;;;0.40;0.40;;;;;;;;;;7383802;19;20622;-71
2022/10/15 13:57:57;;;;;;;0.30;0.30;;;;;;;;;;7382909;19;20919;-72
2022/10/15 14:00:26;;;;;;;0.30;0.30;;;;;;;;;;7386193;19;20144;-72
2022/10/15 14:03:23;;;;;;;0.30;0.30;;;;;;;;;;7388950;19;20129;-72
2022/10/15 14:05:51;;;;;;;0.30;0.30;;;;;;;;;;7387084;19;20148;-72
2022/10/15 14:08:24;;;;;;;0.30;0.30;;;;;;;;;;7382574;19;20639;-72
2022/10/15 14:10:51;;;;;;;0.30;0.30;;;;;;;;;;7383529;19;20124;-72
2022/10/15 14:13:17;;;;;;;0.30;0.30;;;;;;;;;;7382694;19;20516;-72
2022/10/15 14:15:51;;;;;;;0.30;0.30;;;;;;;;;;7384490;19;20145;-72
2022/10/15 14:18:17;;;;;;;0.30;0.30;;;;;;;;;;7384941;19;20125;-72
2022/10/15 14:20:47;;;;;;;0.30;0.30;;;;;;;;;;7379127;19;20474;-72
2022/10/15 14:23:21;;;;;;;0.30;0.30;;;;;;;;;;7383895;19;20208;-71
2022/10/15 14:26:00;;;;;;;0.30;0.30;;;;;;;;;;7380513;19;20180;-71
2022/10/15 14:28:27;;;;;;;0.30;0.30;;;;;;;;;;7383685;19;20155;-71
2022/10/15 14:30:52;;;;;;;0.30;0.30;;;;;;;;;;7378733;19;20143;-71
2022/10/15 14:33:50;;;;;;;0.30;0.30;;;;;;;;;;7386214;19;20467;-72
2022/10/15 14:36:30;;;;;;;0.30;0.30;;;;;;;;;;7378326;19;20179;-72
2022/10/15 14:39:16;;;;;;;0.30;0.30;;;;;;;;;;7381002;19;20495;-71
2022/10/15 14:41:54;;;;;;;0.30;0.30;;;;;;;;;;7385005;19;20140;-72
2022/10/15 14:44:19;;;;;;;0.30;0.30;;;;;;;;;;7389048;19;20244;-72
2022/10/15 14:46:48;;;;;;;0.30;0.30;;;;;;;;;;7387267;19;20128;-72
2022/10/15 14:49:33;;;;;;;0.30;0.30;;;;;;;;;;7386027;19;20131;-72
2022/10/15 14:52:03;;;;;;;0.30;0.30;;;;;;;;;;7388232;19;20141;-72
2022/10/15 14:54:38;;;;;;;0.30;0.30;;;;;;;;;;7389203;19;20152;-72
2022/10/15 14:57:03;;;;;;;0.30;0.30;;;;;;;;;;7388255;19;20669;-72
2022/10/15 14:59:32;;;;;;;0.30;0.30;;;;;;;;;;7384714;19;20132;-71
2022/10/15 15:01:59;;;;;;;0.30;0.30;;;;;;;;;;7385233;19;20622;-71
2022/10/15 15:04:40;;;;;;;0.40;0.40;;;;;;;;;;7387181;19;20180;-71